Time;durP1;ratioP1;P1;durP2;ratioP2;P2;SDS_P1;SDS_P2;PMS_P1;PMS_P2;Temp;Humidity;BMP_temperature;BMP_pressure;BME280_temperature;BME280_humidity;BME280_pressure;Samples;Min_cycle;Max_cycle;Signal;HPM_P1;HPM_P2
2023/01/26 00:01:38;;;;;;;18.87;12.67;;;;;;;;;;5027098;28;20794;-67
2023/01/26 00:04:04;;;;;;;18.40;12.60;;;;;;;;;;5024705;28;20432;-67
2023/01/26 00:06:30;;;;;;;16.43;11.17;;;;;;;;;;4992232;28;20445;-67
2023/01/26 00:08:56;;;;;;;20.30;12.37;;;;;;;;;;5028217;28;20435;-68
2023/01/26 00:11:25;;;;;;;14.57;11.47;;;;;;;;;;5028373;28;20466;-69
2023/01/26 00:13:52;;;;;;;13.53;11.23;;;;;;;;;;5025499;28;20466;-67
2023/01/26 00:16:18;;;;;;;14.60;11.27;;;;;;;;;;5024868;28;21009;-67
2023/01/26 00:18:45;;;;;;;12.63;10.17;;;;;;;;;;5027138;28;20931;-67
2023/01/26 00:21:15;;;;;;;18.10;11.40;;;;;;;;;;5022511;28;20439;-67
2023/01/26 00:23:41;;;;;;;14.57;10.77;;;;;;;;;;5027307;28;20527;-67
2023/01/26 00:26:08;;;;;;;16.33;9.80;;;;;;;;;;5026029;28;20439;-68
2023/01/26 00:28:34;;;;;;;11.47;9.43;;;;;;;;;;5023932;28;20427;-67
2023/01/26 00:31:04;;;;;;;10.70;9.40;;;;;;;;;;5028986;28;20440;-67
2023/01/26 00:33:30;;;;;;;14.87;9.63;;;;;;;;;;5027101;28;20530;-67
2023/01/26 00:35:56;;;;;;;13.63;9.03;;;;;;;;;;5023093;28;20932;-68
2023/01/26 00:38:22;;;;;;;9.73;8.77;;;;;;;;;;5027693;28;20447;-67
2023/01/26 00:40:48;;;;;;;12.37;10.20;;;;;;;;;;5026352;28;20479;-67
2023/01/26 00:43:14;;;;;;;12.80;10.03;;;;;;;;;;5023853;28;20574;-67
2023/01/26 00:45:40;;;;;;;10.60;7.70;;;;;;;;;;5024853;28;20424;-67
2023/01/26 00:48:06;;;;;;;10.07;8.20;;;;;;;;;;5027179;28;20447;-67
2023/01/26 00:50:32;;;;;;;21.13;10.90;;;;;;;;;;5026547;28;20474;-67
2023/01/26 00:52:58;;;;;;;10.50;8.30;;;;;;;;;;5027379;28;20443;-66
2023/01/26 00:55:31;;;;;;;14.00;8.60;;;;;;;;;;5007786;28;20506;-67
2023/01/26 00:57:57;;;;;;;10.13;8.23;;;;;;;;;;5025260;28;20951;-67
2023/01/26 01:00:23;;;;;;;11.00;9.00;;;;;;;;;;5025133;28;21031;-67
2023/01/26 01:02:49;;;;;;;12.97;9.30;;;;;;;;;;5022423;28;20535;-67
2023/01/26 01:05:15;;;;;;;14.53;9.83;;;;;;;;;;5024882;28;21049;-67
2023/01/26 01:07:41;;;;;;;10.27;8.73;;;;;;;;;;5024801;28;20458;-67
2023/01/26 01:10:07;;;;;;;10.97;9.07;;;;;;;;;;5023315;28;20443;-68
2023/01/26 01:12:33;;;;;;;14.20;9.53;;;;;;;;;;5023356;28;20519;-67
2023/01/26 01:14:59;;;;;;;16.67;9.63;;;;;;;;;;5025834;28;21006;-67
2023/01/26 01:17:25;;;;;;;17.93;10.83;;;;;;;;;;5024577;28;20534;-67
2023/01/26 01:19:51;;;;;;;11.63;9.40;;;;;;;;;;5029057;28;20442;-67
2023/01/26 01:22:17;;;;;;;14.80;9.67;;;;;;;;;;5010295;28;20935;-67
2023/01/26 01:24:43;;;;;;;12.77;9.47;;;;;;;;;;5025310;28;20458;-67
2023/01/26 01:27:09;;;;;;;18.10;10.70;;;;;;;;;;5025048;28;20484;-67
2023/01/26 01:29:35;;;;;;;16.97;10.77;;;;;;;;;;5007618;28;20428;-67
2023/01/26 01:32:01;;;;;;;14.70;10.40;;;;;;;;;;5024945;28;20442;-67
2023/01/26 01:34:27;;;;;;;13.97;11.10;;;;;;;;;;5023291;28;20466;-67
2023/01/26 01:36:53;;;;;;;9.77;8.70;;;;;;;;;;5024298;28;20830;-67
2023/01/26 01:39:19;;;;;;;12.87;9.57;;;;;;;;;;5025627;28;20442;-67
2023/01/26 01:41:45;;;;;;;13.00;9.83;;;;;;;;;;5027281;28;20461;-67
2023/01/26 01:44:12;;;;;;;12.77;9.83;;;;;;;;;;5025017;28;20813;-67
2023/01/26 01:46:39;;;;;;;12.73;9.93;;;;;;;;;;5026454;28;21153;-67
2023/01/26 01:49:13;;;;;;;12.83;10.17;;;;;;;;;;5022822;28;20436;-67
2023/01/26 01:51:43;;;;;;;12.67;9.30;;;;;;;;;;5024906;28;20431;-68
2023/01/26 01:54:11;;;;;;;15.83;9.43;;;;;;;;;;5027186;28;20935;-67
2023/01/26 01:56:38;;;;;;;10.80;9.37;;;;;;;;;;5024119;28;20495;-67
2023/01/26 01:59:05;;;;;;;14.33;10.03;;;;;;;;;;5023075;28;20437;-67
2023/01/26 02:01:31;;;;;;;13.10;9.63;;;;;;;;;;5007769;28;20527;-67
2023/01/26 02:03:59;;;;;;;14.70;8.80;;;;;;;;;;5027030;28;20589;-67
2023/01/26 02:06:34;;;;;;;16.33;9.80;;;;;;;;;;5022571;28;20519;-67
2023/01/26 02:09:00;;;;;;;11.50;10.23;;;;;;;;;;5026812;28;20426;-67
2023/01/26 02:11:26;;;;;;;13.30;10.03;;;;;;;;;;5022846;28;20436;-67
2023/01/26 02:13:52;;;;;;;12.70;9.33;;;;;;;;;;5026277;28;21910;-67
2023/01/26 02:16:19;;;;;;;13.53;10.90;;;;;;;;;;5025101;28;20493;-67
2023/01/26 02:18:45;;;;;;;10.40;9.40;;;;;;;;;;5027571;28;20423;-67
2023/01/26 02:21:13;;;;;;;13.10;9.80;;;;;;;;;;5023309;28;20505;-67
2023/01/26 02:23:42;;;;;;;14.07;9.67;;;;;;;;;;5023794;28;22024;-67
2023/01/26 02:26:15;;;;;;;12.90;9.30;;;;;;;;;;5025474;28;20471;-67
2023/01/26 02:28:42;;;;;;;13.43;10.30;;;;;;;;;;5019616;28;20485;-67
2023/01/26 02:31:09;;;;;;;14.90;10.77;;;;;;;;;;5023670;28;20935;-67
2023/01/26 02:33:35;;;;;;;12.83;10.20;;;;;;;;;;5027825;28;20911;-67
2023/01/26 02:36:01;;;;;;;12.70;9.77;;;;;;;;;;5020232;28;20501;-67
2023/01/26 02:38:30;;;;;;;19.53;10.60;;;;;;;;;;5025479;28;20493;-67
2023/01/26 02:40:59;;;;;;;14.60;10.53;;;;;;;;;;5026135;28;20517;-67
2023/01/26 02:43:26;;;;;;;15.20;10.83;;;;;;;;;;5029406;28;20997;-67
2023/01/26 02:45:52;;;;;;;14.50;11.00;;;;;;;;;;5026534;28;20979;-67
2023/01/26 02:51:03;;;;;;;17.23;10.90;;;;;;;;;;5030160;28;20946;-66
2023/01/26 02:53:30;;;;;;;13.70;9.33;;;;;;;;;;5030979;28;20428;-67
2023/01/26 02:55:56;;;;;;;12.30;10.37;;;;;;;;;;5029820;28;20564;-67
2023/01/26 02:58:22;;;;;;;11.70;9.57;;;;;;;;;;5025723;28;20843;-67
2023/01/26 03:00:48;;;;;;;13.87;9.97;;;;;;;;;;5025961;28;20443;-66
2023/01/26 03:03:16;;;;;;;10.63;9.40;;;;;;;;;;5030519;28;20891;-67
2023/01/26 03:05:42;;;;;;;12.20;9.57;;;;;;;;;;5026856;28;20463;-67
2023/01/26 03:08:08;;;;;;;9.20;7.53;;;;;;;;;;5026917;28;20447;-67
2023/01/26 03:10:34;;;;;;;11.93;8.63;;;;;;;;;;5025538;28;20433;-67
2023/01/26 03:13:00;;;;;;;10.87;8.60;;;;;;;;;;5030485;28;20453;-67
2023/01/26 03:15:42;;;;;;;10.47;8.33;;;;;;;;;;5028521;28;20466;-68
2023/01/26 03:29:11;;;;;;;11.90;9.10;;;;;;;;;;5028590;28;20785;-67
2023/01/26 03:31:37;;;;;;;9.53;8.03;;;;;;;;;;5029049;28;20434;-67
2023/01/26 03:34:03;;;;;;;8.93;8.03;;;;;;;;;;5030998;28;20477;-67
2023/01/26 03:36:29;;;;;;;9.47;8.40;;;;;;;;;;5025933;28;21136;-67
2023/01/26 03:38:55;;;;;;;12.30;8.60;;;;;;;;;;5027290;28;20439;-67
2023/01/26 03:57:49;;;;;;;9.03;7.97;;;;;;;;;;5028998;28;20485;-67
2023/01/26 04:00:15;;;;;;;6.93;5.97;;;;;;;;;;5024036;28;20440;-66
2023/01/26 04:08:23;;;;;;;8.43;7.60;;;;;;;;;;5029643;28;20477;-67
2023/01/26 04:10:50;;;;;;;9.67;6.70;;;;;;;;;;5029810;28;20439;-67
2023/01/26 04:21:34;;;;;;;6.57;5.97;;;;;;;;;;5030672;28;20433;-67
2023/01/26 04:24:01;;;;;;;6.20;5.80;;;;;;;;;;5028642;28;20419;-67
2023/01/26 04:26:36;;;;;;;7.80;7.10;;;;;;;;;;5022694;28;20442;-69
2023/01/26 04:29:02;;;;;;;6.47;5.83;;;;;;;;;;5028394;28;20415;-67
2023/01/26 04:31:28;;;;;;;6.93;6.23;;;;;;;;;;5028032;28;20431;-67
2023/01/26 04:33:54;;;;;;;8.03;6.57;;;;;;;;;;5025659;28;20490;-67
2023/01/26 04:36:20;;;;;;;8.83;7.93;;;;;;;;;;5028169;28;20475;-68
2023/01/26 04:38:46;;;;;;;8.07;6.83;;;;;;;;;;5028691;28;20927;-67
2023/01/26 04:41:12;;;;;;;7.57;6.90;;;;;;;;;;5029821;28;20484;-69
2023/01/26 04:43:38;;;;;;;9.03;7.63;;;;;;;;;;5025594;28;20454;-67
2023/01/26 04:46:06;;;;;;;10.53;7.27;;;;;;;;;;5026982;28;20935;-67
2023/01/26 04:48:32;;;;;;;8.07;7.20;;;;;;;;;;5029753;28;20443;-66
2023/01/26 04:51:00;;;;;;;8.10;6.73;;;;;;;;;;5023141;28;20931;-67
2023/01/26 04:53:26;;;;;;;6.80;5.63;;;;;;;;;;5008431;28;20447;-67
2023/01/26 04:55:53;;;;;;;9.03;6.63;;;;;;;;;;5026319;28;20482;-66
2023/01/26 04:58:19;;;;;;;8.23;6.77;;;;;;;;;;5027970;28;20435;-67
2023/01/26 05:00:50;;;;;;;7.10;6.40;;;;;;;;;;5020079;28;20437;-67
2023/01/26 05:03:16;;;;;;;7.97;6.47;;;;;;;;;;5027794;28;20442;-67
2023/01/26 05:05:42;;;;;;;6.73;6.23;;;;;;;;;;5026663;28;20475;-67
2023/01/26 05:08:08;;;;;;;7.80;7.13;;;;;;;;;;5024421;28;20497;-67
2023/01/26 05:10:34;;;;;;;7.73;7.03;;;;;;;;;;5027566;28;20450;-68
2023/01/26 05:13:00;;;;;;;7.80;7.10;;;;;;;;;;5030204;28;20431;-67
2023/01/26 05:15:26;;;;;;;7.63;6.97;;;;;;;;;;5026903;28;20958;-67
2023/01/26 05:17:52;;;;;;;6.90;6.40;;;;;;;;;;5029756;28;20437;-69
2023/01/26 05:20:18;;;;;;;6.83;5.70;;;;;;;;;;5027569;28;20477;-67
2023/01/26 05:22:44;;;;;;;10.60;7.30;;;;;;;;;;5008970;28;20467;-70
2023/01/26 05:25:10;;;;;;;10.87;8.27;;;;;;;;;;5026765;28;20457;-67
2023/01/26 05:27:36;;;;;;;7.27;6.07;;;;;;;;;;5025104;28;20991;-67
2023/01/26 05:30:03;;;;;;;7.13;6.63;;;;;;;;;;5028011;28;20423;-68
2023/01/26 05:32:29;;;;;;;6.10;5.50;;;;;;;;;;5029637;28;20423;-68
2023/01/26 05:34:55;;;;;;;7.97;7.20;;;;;;;;;;5023654;28;20435;-69
2023/01/26 05:37:23;;;;;;;8.13;7.30;;;;;;;;;;5021704;28;20487;-68
2023/01/26 05:39:49;;;;;;;6.67;6.17;;;;;;;;;;5027062;28;20427;-68
2023/01/26 05:42:15;;;;;;;7.10;6.40;;;;;;;;;;5026246;28;20439;-67
2023/01/26 05:44:41;;;;;;;7.67;6.97;;;;;;;;;;5025154;28;20458;-67
2023/01/26 05:47:07;;;;;;;6.83;6.13;;;;;;;;;;5021014;28;20436;-68
2023/01/26 05:49:33;;;;;;;8.70;7.77;;;;;;;;;;5026553;28;20930;-68
2023/01/26 05:51:59;;;;;;;8.90;7.67;;;;;;;;;;5026483;28;20841;-67
2023/01/26 05:54:25;;;;;;;8.73;7.57;;;;;;;;;;5027547;28;20940;-68
2023/01/26 05:56:56;;;;;;;7.33;6.53;;;;;;;;;;5025915;28;20483;-68
2023/01/26 05:59:22;;;;;;;8.00;6.93;;;;;;;;;;5025292;28;20435;-69
2023/01/26 06:01:48;;;;;;;7.93;6.00;;;;;;;;;;5022226;28;20432;-69
2023/01/26 06:04:14;;;;;;;8.50;7.30;;;;;;;;;;5027288;28;20470;-69
2023/01/26 06:06:41;;;;;;;8.07;7.23;;;;;;;;;;5025301;28;20471;-68
2023/01/26 06:09:07;;;;;;;7.73;6.93;;;;;;;;;;5025094;28;20579;-68
2023/01/26 06:11:33;;;;;;;11.60;7.33;;;;;;;;;;5025624;28;20858;-67
2023/01/26 06:13:59;;;;;;;8.30;7.60;;;;;;;;;;5027466;28;20517;-68
2023/01/26 06:16:25;;;;;;;11.57;7.30;;;;;;;;;;5029157;28;20569;-67
2023/01/26 06:18:51;;;;;;;7.63;6.90;;;;;;;;;;5033258;28;20998;-68
2023/01/26 06:21:17;;;;;;;9.73;7.33;;;;;;;;;;5030165;28;20461;-68
2023/01/26 06:23:43;;;;;;;9.07;7.50;;;;;;;;;;5013592;28;20438;-67
2023/01/26 06:26:09;;;;;;;9.00;6.53;;;;;;;;;;5028561;28;20525;-70
2023/01/26 06:28:35;;;;;;;12.20;8.13;;;;;;;;;;5029974;28;22007;-68
2023/01/26 06:31:02;;;;;;;8.90;7.17;;;;;;;;;;5030464;28;20450;-67
2023/01/26 06:33:28;;;;;;;10.73;9.10;;;;;;;;;;5031959;28;20423;-68
2023/01/26 06:35:54;;;;;;;12.63;8.53;;;;;;;;;;5029766;28;20470;-69
2023/01/26 06:38:20;;;;;;;9.87;8.33;;;;;;;;;;5022244;28;20956;-69
2023/01/26 06:40:47;;;;;;;15.43;8.70;;;;;;;;;;5030927;28;20428;-69
2023/01/26 06:43:13;;;;;;;10.30;8.93;;;;;;;;;;5030948;28;20534;-68
2023/01/26 06:45:38;;;;;;;9.77;8.60;;;;;;;;;;5028635;28;20590;-69
2023/01/26 06:48:04;;;;;;;8.27;7.40;;;;;;;;;;5031377;28;20438;-69
2023/01/26 06:50:32;;;;;;;10.97;8.97;;;;;;;;;;5026140;28;20810;-68
2023/01/26 06:52:59;;;;;;;8.87;7.97;;;;;;;;;;5031540;28;20467;-68
2023/01/26 06:55:31;;;;;;;9.97;8.67;;;;;;;;;;5029443;28;20422;-68
2023/01/26 06:57:57;;;;;;;10.20;7.77;;;;;;;;;;5027052;28;20504;-68
2023/01/26 07:00:23;;;;;;;11.80;8.30;;;;;;;;;;5025502;28;20435;-69
2023/01/26 07:02:49;;;;;;;8.40;6.97;;;;;;;;;;5022491;28;20463;-73
2023/01/26 07:05:15;;;;;;;8.73;6.77;;;;;;;;;;5027971;28;20828;-73
2023/01/26 07:07:41;;;;;;;13.20;7.53;;;;;;;;;;5029153;28;20450;-69
2023/01/26 07:10:08;;;;;;;8.73;7.27;;;;;;;;;;5025837;28;20888;-70
2023/01/26 07:12:40;;;;;;;7.43;6.73;;;;;;;;;;5028227;28;20721;-71
2023/01/26 07:15:07;;;;;;;6.60;6.00;;;;;;;;;;5025934;28;20438;-73
2023/01/26 07:17:33;;;;;;;8.33;6.60;;;;;;;;;;5029063;28;20485;-73
2023/01/26 07:19:59;;;;;;;13.33;9.27;;;;;;;;;;4995626;28;20444;-73
2023/01/26 07:22:25;;;;;;;9.70;7.43;;;;;;;;;;5028650;28;20454;-71
2023/01/26 07:24:51;;;;;;;8.30;7.47;;;;;;;;;;5024703;28;20431;-72
2023/01/26 07:27:17;;;;;;;12.00;9.03;;;;;;;;;;5027793;28;20431;-74
2023/01/26 07:29:43;;;;;;;10.77;8.50;;;;;;;;;;5010155;28;20780;-69
2023/01/26 07:32:08;;;;;;;10.40;8.57;;;;;;;;;;5007396;28;20485;-69
2023/01/26 07:34:35;;;;;;;9.70;8.20;;;;;;;;;;5029893;28;20436;-70
2023/01/26 07:37:01;;;;;;;9.00;8.10;;;;;;;;;;5029354;28;20487;-68
2023/01/26 07:39:27;;;;;;;11.30;7.43;;;;;;;;;;5025829;28;20470;-68
2023/01/26 07:41:53;;;;;;;10.37;8.17;;;;;;;;;;5029532;28;20458;-67
2023/01/26 07:44:18;;;;;;;12.93;7.83;;;;;;;;;;5026708;28;20455;-69
2023/01/26 07:46:44;;;;;;;10.40;7.50;;;;;;;;;;5007812;28;20941;-67
2023/01/26 07:49:11;;;;;;;11.57;8.80;;;;;;;;;;5026230;28;20428;-68
2023/01/26 07:51:40;;;;;;;9.60;8.60;;;;;;;;;;5026047;28;20443;-68
2023/01/26 07:54:06;;;;;;;10.23;8.93;;;;;;;;;;5024557;28;20439;-71
2023/01/26 07:56:32;;;;;;;9.13;8.00;;;;;;;;;;5005895;28;20471;-72
2023/01/26 07:58:59;;;;;;;10.93;7.67;;;;;;;;;;5002120;28;20926;-72
2023/01/26 08:10:17;;;;;;;10.00;8.37;;;;;;;;;;4988668;28;20514;-71
2023/01/26 08:12:42;;;;;;;9.10;7.60;;;;;;;;;;4990726;28;20433;-70
2023/01/26 08:15:10;;;;;;;10.67;8.60;;;;;;;;;;4990367;28;20491;-68
2023/01/26 08:17:37;;;;;;;11.37;9.00;;;;;;;;;;4990948;28;20445;-73
2023/01/26 08:20:03;;;;;;;9.33;8.43;;;;;;;;;;4987999;28;20656;-71
2023/01/26 08:22:29;;;;;;;7.47;6.77;;;;;;;;;;4990703;28;20443;-72
2023/01/26 08:24:55;;;;;;;8.93;7.27;;;;;;;;;;4988758;28;20524;-72
2023/01/26 08:27:21;;;;;;;8.40;7.50;;;;;;;;;;4990699;28;20441;-73
2023/01/26 08:29:47;;;;;;;8.37;7.50;;;;;;;;;;4989012;28;20944;-73
2023/01/26 08:32:13;;;;;;;12.60;8.30;;;;;;;;;;4987078;28;20448;-70
2023/01/26 08:34:39;;;;;;;7.13;6.17;;;;;;;;;;4989076;28;20499;-69
2023/01/26 08:37:05;;;;;;;15.27;8.50;;;;;;;;;;4990083;28;20485;-69
2023/01/26 08:39:31;;;;;;;8.47;7.53;;;;;;;;;;4988452;28;20844;-68
2023/01/26 08:41:57;;;;;;;11.03;8.63;;;;;;;;;;4990633;28;20443;-70
2023/01/26 08:44:23;;;;;;;12.07;10.00;;;;;;;;;;4988744;28;21539;-68
2023/01/26 08:46:49;;;;;;;14.67;9.90;;;;;;;;;;4972395;28;20449;-69
2023/01/26 08:49:15;;;;;;;15.63;11.93;;;;;;;;;;4989850;28;20429;-70
2023/01/26 08:51:41;;;;;;;11.90;8.30;;;;;;;;;;4988676;28;20432;-69
2023/01/26 08:54:07;;;;;;;10.43;8.50;;;;;;;;;;4987923;28;20796;-69
2023/01/26 08:56:33;;;;;;;10.50;9.30;;;;;;;;;;4989442;28;20563;-70
2023/01/26 08:58:59;;;;;;;15.60;10.57;;;;;;;;;;4972170;28;20431;-69
2023/01/26 09:01:25;;;;;;;12.13;9.57;;;;;;;;;;4987598;28;20449;-72
2023/01/26 09:03:52;;;;;;;13.97;10.27;;;;;;;;;;4986442;28;20436;-69
2023/01/26 09:06:18;;;;;;;13.47;10.40;;;;;;;;;;4989936;28;20429;-69
2023/01/26 09:08:44;;;;;;;14.43;10.33;;;;;;;;;;4988822;28;20456;-70
2023/01/26 09:11:11;;;;;;;16.83;11.87;;;;;;;;;;4987629;28;20461;-67
2023/01/26 09:13:37;;;;;;;13.90;9.50;;;;;;;;;;4987941;28;20944;-69
2023/01/26 09:16:05;;;;;;;13.03;10.37;;;;;;;;;;4971507;28;20514;-69
2023/01/26 09:18:30;;;;;;;16.47;10.43;;;;;;;;;;4988743;28;20536;-69
2023/01/26 09:21:02;;;;;;;25.30;18.43;;;;;;;;;;4989267;28;20520;-72
2023/01/26 09:23:28;;;;;;;54.20;33.30;;;;;;;;;;4969048;28;20429;-72
2023/01/26 09:25:54;;;;;;;68.73;37.63;;;;;;;;;;4988031;28;20925;-71
2023/01/26 09:28:20;;;;;;;20.73;11.30;;;;;;;;;;4989230;28;20932;-72
2023/01/26 09:30:49;;;;;;;8.07;6.87;;;;;;;;;;4972462;28;20924;-72
2023/01/26 09:33:15;;;;;;;8.13;7.40;;;;;;;;;;4988443;28;20433;-71
2023/01/26 09:35:41;;;;;;;8.73;7.50;;;;;;;;;;4986689;28;20468;-68
2023/01/26 09:38:07;;;;;;;6.57;6.00;;;;;;;;;;4971610;28;21697;-68
2023/01/26 09:40:52;;;;;;;13.70;11.47;;;;;;;;;;4988667;28;20503;-70
2023/01/26 09:43:25;;;;;;;10.57;9.57;;;;;;;;;;4989134;28;20433;-68
2023/01/26 09:46:00;;;;;;;10.00;9.07;;;;;;;;;;4989456;28;20432;-69
2023/01/26 09:48:31;;;;;;;8.40;7.63;;;;;;;;;;4990309;28;20421;-68
2023/01/26 09:51:00;;;;;;;9.77;6.97;;;;;;;;;;4991566;28;20823;-67
2023/01/26 09:53:47;;;;;;;7.53;6.97;;;;;;;;;;4993036;28;20511;-73
2023/01/26 09:56:17;;;;;;;8.57;7.67;;;;;;;;;;4973055;28;20480;-72
2023/01/26 09:58:44;;;;;;;9.07;8.03;;;;;;;;;;4975487;28;20510;-68
2023/01/26 10:01:17;;;;;;;8.90;6.17;;;;;;;;;;4994034;28;20455;-70
2023/01/26 10:03:46;;;;;;;7.70;6.93;;;;;;;;;;4993025;28;20436;-72
2023/01/26 10:06:20;;;;;;;8.40;7.50;;;;;;;;;;4993755;28;20421;-67
2023/01/26 10:08:47;;;;;;;7.77;7.07;;;;;;;;;;4992906;28;20488;-71
2023/01/26 10:11:31;;;;;;;7.37;6.40;;;;;;;;;;4992619;28;20452;-69
2023/01/26 10:14:04;;;;;;;8.20;6.73;;;;;;;;;;4992586;28;20999;-70
2023/01/26 10:16:32;;;;;;;13.67;9.20;;;;;;;;;;4993419;28;20472;-70
2023/01/26 10:19:04;;;;;;;8.37;6.83;;;;;;;;;;4991710;28;20437;-71
2023/01/26 10:21:38;;;;;;;7.27;6.70;;;;;;;;;;4992561;28;20437;-70
2023/01/26 10:24:04;;;;;;;6.23;5.73;;;;;;;;;;4991473;28;20462;-69
2023/01/26 10:26:35;;;;;;;10.00;6.93;;;;;;;;;;4992945;28;20425;-71
2023/01/26 10:29:03;;;;;;;7.57;6.67;;;;;;;;;;4991140;28;20759;-68
2023/01/26 10:31:31;;;;;;;7.00;6.30;;;;;;;;;;4990547;28;20437;-70
2023/01/26 10:34:14;;;;;;;11.97;7.20;;;;;;;;;;4992497;28;21623;-69
2023/01/26 10:36:41;;;;;;;16.77;11.00;;;;;;;;;;4990875;28;20566;-71
2023/01/26 10:39:10;;;;;;;6.13;5.73;;;;;;;;;;4991512;28;20421;-67
2023/01/26 10:41:36;;;;;;;7.17;6.47;;;;;;;;;;4991965;28;20845;-68
2023/01/26 10:44:17;;;;;;;8.87;7.87;;;;;;;;;;4992602;28;20429;-72
2023/01/26 10:46:43;;;;;;;6.27;5.77;;;;;;;;;;4989199;28;20437;-68
2023/01/26 10:49:18;;;;;;;7.10;6.40;;;;;;;;;;4972483;28;20964;-67
2023/01/26 10:51:46;;;;;;;7.13;6.30;;;;;;;;;;4989947;28;20440;-72
2023/01/26 10:54:25;;;;;;;5.70;5.23;;;;;;;;;;4990306;28;20422;-72
2023/01/26 10:56:52;;;;;;;7.80;6.67;;;;;;;;;;4991198;28;20484;-70
2023/01/26 10:59:24;;;;;;;11.20;6.07;;;;;;;;;;4975673;28;20466;-72
2023/01/26 11:01:51;;;;;;;7.97;6.33;;;;;;;;;;4989826;28;20440;-68
2023/01/26 11:04:18;;;;;;;8.10;6.40;;;;;;;;;;4992610;28;20430;-70
2023/01/26 11:06:44;;;;;;;8.07;6.47;;;;;;;;;;4992464;28;20436;-71
2023/01/26 11:09:13;;;;;;;5.53;5.10;;;;;;;;;;4990084;28;20488;-73
2023/01/26 11:11:39;;;;;;;9.60;6.93;;;;;;;;;;4973646;28;20445;-68
2023/01/26 11:14:14;;;;;;;6.40;5.80;;;;;;;;;;4991651;28;20434;-69
2023/01/26 11:16:44;;;;;;;10.37;7.13;;;;;;;;;;4988343;28;20524;-72
2023/01/26 11:19:32;;;;;;;9.13;6.87;;;;;;;;;;4992563;28;20425;-68
2023/01/26 11:22:00;;;;;;;8.27;7.47;;;;;;;;;;4991418;28;20536;-69
2023/01/26 11:24:35;;;;;;;7.90;7.00;;;;;;;;;;4991337;28;20487;-69
2023/01/26 11:27:28;;;;;;;8.63;7.77;;;;;;;;;;4991482;28;20437;-72
2023/01/26 11:29:54;;;;;;;12.10;8.20;;;;;;;;;;4990031;28;20433;-69
2023/01/26 11:32:24;;;;;;;31.23;24.43;;;;;;;;;;4973384;28;20499;-73
2023/01/26 11:35:06;;;;;;;11.07;7.40;;;;;;;;;;4990261;28;20436;-68
2023/01/26 11:37:35;;;;;;;11.23;7.57;;;;;;;;;;4989985;28;20628;-68
2023/01/26 11:40:16;;;;;;;16.07;9.97;;;;;;;;;;4974120;28;20955;-70
2023/01/26 11:43:07;;;;;;;8.37;7.37;;;;;;;;;;4990944;28;21285;-68
2023/01/26 11:45:33;;;;;;;9.17;8.27;;;;;;;;;;4990953;28;20452;-70
2023/01/26 11:47:59;;;;;;;10.27;7.47;;;;;;;;;;4991389;28;20437;-69
2023/01/26 11:50:37;;;;;;;11.17;8.07;;;;;;;;;;4974005;28;20473;-70
2023/01/26 11:53:16;;;;;;;13.33;7.23;;;;;;;;;;4990358;28;20444;-72
2023/01/26 11:55:45;;;;;;;7.80;6.07;;;;;;;;;;4971843;28;20886;-71
2023/01/26 11:58:14;;;;;;;6.57;6.07;;;;;;;;;;4989316;28;20453;-70
2023/01/26 12:00:43;;;;;;;8.37;7.53;;;;;;;;;;4990014;28;20436;-70
2023/01/26 12:03:17;;;;;;;7.77;7.03;;;;;;;;;;4990155;28;21143;-67
2023/01/26 12:05:45;;;;;;;8.43;6.60;;;;;;;;;;4989493;28;20503;-70
2023/01/26 12:08:11;;;;;;;8.50;7.33;;;;;;;;;;4970991;28;20469;-68
2023/01/26 12:10:55;;;;;;;7.37;6.77;;;;;;;;;;4991327;28;20464;-68
2023/01/26 12:13:34;;;;;;;9.13;7.47;;;;;;;;;;4991275;28;20447;-68
2023/01/26 12:16:03;;;;;;;8.23;6.63;;;;;;;;;;4990114;28;20487;-69
2023/01/26 12:18:31;;;;;;;12.27;7.40;;;;;;;;;;4972958;28;20452;-69
2023/01/26 12:21:07;;;;;;;7.97;7.10;;;;;;;;;;4990782;28;20552;-69
2023/01/26 12:24:09;;;;;;;10.63;8.90;;;;;;;;;;4989863;28;20935;-70
2023/01/26 12:26:42;;;;;;;19.97;9.23;;;;;;;;;;4929543;29;20455;-67
2023/01/26 12:29:28;;;;;;;11.23;8.07;;;;;;;;;;4980594;28;20440;-67
2023/01/26 12:31:58;;;;;;;13.43;7.70;;;;;;;;;;4991021;28;20524;-72
2023/01/26 12:34:27;;;;;;;7.80;7.00;;;;;;;;;;4989439;28;21027;-67
2023/01/26 12:36:53;;;;;;;8.93;8.13;;;;;;;;;;4988033;28;20547;-68
2023/01/26 12:39:31;;;;;;;33.87;8.57;;;;;;;;;;4972359;28;20469;-69
2023/01/26 12:42:00;;;;;;;9.90;8.20;;;;;;;;;;4988885;28;20800;-69
2023/01/26 12:44:35;;;;;;;24.93;8.33;;;;;;;;;;4989100;28;20440;-67
2023/01/26 12:47:13;;;;;;;9.30;7.73;;;;;;;;;;4988344;28;20539;-68
2023/01/26 12:49:45;;;;;;;7.23;6.27;;;;;;;;;;4990240;28;20447;-69
2023/01/26 12:52:15;;;;;;;6.90;5.97;;;;;;;;;;4972597;28;20453;-69
2023/01/26 12:54:50;;;;;;;8.83;5.90;;;;;;;;;;4988044;28;20449;-70
2023/01/26 12:57:18;;;;;;;7.60;6.70;;;;;;;;;;4987458;28;20495;-70
2023/01/26 12:59:44;;;;;;;8.80;6.43;;;;;;;;;;4986097;28;20461;-72
2023/01/26 13:02:10;;;;;;;9.03;8.13;;;;;;;;;;4985777;28;20476;-74
2023/01/26 13:04:37;;;;;;;8.33;7.13;;;;;;;;;;4987901;28;20812;-74
2023/01/26 13:07:04;;;;;;;7.17;6.50;;;;;;;;;;4985540;28;20433;-73
2023/01/26 13:09:30;;;;;;;7.00;6.40;;;;;;;;;;4972588;28;21083;-73
2023/01/26 13:12:00;;;;;;;8.37;7.17;;;;;;;;;;4971974;28;20549;-74
2023/01/26 13:14:27;;;;;;;11.13;7.43;;;;;;;;;;4990308;28;20504;-72
2023/01/26 13:16:53;;;;;;;7.30;6.63;;;;;;;;;;4968041;28;20477;-71
2023/01/26 13:19:38;;;;;;;10.60;7.77;;;;;;;;;;4987599;28;20429;-71
2023/01/26 13:22:24;;;;;;;7.50;6.40;;;;;;;;;;4985537;28;20475;-73
2023/01/26 13:25:11;;;;;;;10.67;8.77;;;;;;;;;;4984147;28;20428;-69
2023/01/26 13:27:36;;;;;;;6.80;6.03;;;;;;;;;;4984870;28;20506;-71
2023/01/26 13:30:23;;;;;;;11.00;7.40;;;;;;;;;;4986122;28;20812;-71
2023/01/26 13:32:49;;;;;;;14.10;7.10;;;;;;;;;;4986755;28;20429;-68
2023/01/26 13:35:17;;;;;;;9.80;6.97;;;;;;;;;;4985699;28;20437;-70
2023/01/26 13:37:49;;;;;;;9.07;8.00;;;;;;;;;;4985202;28;20512;-70
2023/01/26 13:40:19;;;;;;;10.60;8.70;;;;;;;;;;4987946;28;20433;-69
2023/01/26 13:42:51;;;;;;;9.10;7.70;;;;;;;;;;4986092;28;20433;-68
2023/01/26 13:45:26;;;;;;;16.97;8.37;;;;;;;;;;4987045;28;20511;-69
2023/01/26 13:47:53;;;;;;;9.03;7.63;;;;;;;;;;4988184;28;20440;-72
2023/01/26 13:50:22;;;;;;;10.20;7.83;;;;;;;;;;4971764;28;20441;-72
2023/01/26 13:52:48;;;;;;;7.83;6.93;;;;;;;;;;4968091;28;20433;-68
2023/01/26 13:55:28;;;;;;;13.37;8.83;;;;;;;;;;4969736;28;20507;-67
2023/01/26 13:58:11;;;;;;;15.57;9.80;;;;;;;;;;4988985;28;20484;-69
2023/01/26 14:00:37;;;;;;;22.73;11.60;;;;;;;;;;4989712;28;20483;-70
2023/01/26 14:03:03;;;;;;;15.57;10.63;;;;;;;;;;4975596;28;20461;-74
2023/01/26 14:05:30;;;;;;;10.10;7.80;;;;;;;;;;4986214;28;20536;-71
2023/01/26 14:07:56;;;;;;;15.30;10.97;;;;;;;;;;4986184;28;20487;-72
2023/01/26 14:10:22;;;;;;;45.17;11.50;;;;;;;;;;4969861;28;20549;-68
2023/01/26 14:12:51;;;;;;;8.47;6.77;;;;;;;;;;4985364;28;20437;-73
2023/01/26 14:15:22;;;;;;;8.10;7.30;;;;;;;;;;4970232;28;20437;-71
2023/01/26 14:17:58;;;;;;;8.90;8.03;;;;;;;;;;4989168;28;20523;-68
2023/01/26 14:20:27;;;;;;;8.90;7.17;;;;;;;;;;4986459;28;20937;-70
2023/01/26 14:23:03;;;;;;;17.43;7.97;;;;;;;;;;4986651;28;20440;-71
2023/01/26 14:25:29;;;;;;;8.50;7.03;;;;;;;;;;4988139;28;20436;-69
2023/01/26 14:27:55;;;;;;;9.77;8.07;;;;;;;;;;4989585;28;20528;-73
2023/01/26 14:30:25;;;;;;;10.80;7.60;;;;;;;;;;4988320;28;20437;-68
2023/01/26 14:33:00;;;;;;;9.87;7.67;;;;;;;;;;4988433;28;20436;-73
2023/01/26 14:35:27;;;;;;;9.83;7.57;;;;;;;;;;4989558;28;20428;-75
2023/01/26 14:38:05;;;;;;;13.80;8.10;;;;;;;;;;4990800;28;20440;-72
2023/01/26 14:40:31;;;;;;;7.77;7.00;;;;;;;;;;4992614;28;20432;-75
2023/01/26 14:42:57;;;;;;;9.43;6.67;;;;;;;;;;4991058;28;20815;-71
2023/01/26 14:45:32;;;;;;;9.07;7.80;;;;;;;;;;4991750;28;20525;-73
2023/01/26 14:48:05;;;;;;;10.80;8.33;;;;;;;;;;4993325;28;20565;-71
2023/01/26 14:50:31;;;;;;;19.93;7.57;;;;;;;;;;4993306;28;20432;-68
2023/01/26 14:52:58;;;;;;;10.40;8.00;;;;;;;;;;4990283;28;20429;-73
2023/01/26 14:55:35;;;;;;;19.80;9.30;;;;;;;;;;4990266;28;20454;-68
2023/01/26 14:58:01;;;;;;;22.13;12.20;;;;;;;;;;4993885;28;20440;-69
2023/01/26 15:00:33;;;;;;;12.07;10.30;;;;;;;;;;4992002;28;20416;-66
2023/01/26 15:03:01;;;;;;;11.30;8.50;;;;;;;;;;4991103;28;20449;-70
2023/01/26 15:05:34;;;;;;;11.93;8.97;;;;;;;;;;4975449;28;20492;-69
2023/01/26 15:08:05;;;;;;;11.07;7.80;;;;;;;;;;4974910;28;20425;-70
2023/01/26 15:10:39;;;;;;;12.70;7.73;;;;;;;;;;4990361;28;20453;-72
2023/01/26 15:13:25;;;;;;;11.40;9.27;;;;;;;;;;4974511;28;20433;-71
2023/01/26 15:16:06;;;;;;;11.00;7.83;;;;;;;;;;4991097;28;20473;-72
2023/01/26 15:18:33;;;;;;;9.90;7.80;;;;;;;;;;4992506;28;20439;-72
2023/01/26 15:21:20;;;;;;;13.47;8.83;;;;;;;;;;4992250;28;20448;-71
2023/01/26 15:23:50;;;;;;;15.37;9.73;;;;;;;;;;4992556;28;20429;-69
2023/01/26 15:26:32;;;;;;;14.80;8.40;;;;;;;;;;4989786;28;20433;-69
2023/01/26 15:28:59;;;;;;;9.70;8.60;;;;;;;;;;4992989;28;20421;-71
2023/01/26 15:31:33;;;;;;;13.97;9.10;;;;;;;;;;4991664;28;20437;-71
2023/01/26 15:34:02;;;;;;;11.30;9.03;;;;;;;;;;4991892;28;20441;-69
2023/01/26 15:36:46;;;;;;;15.87;10.43;;;;;;;;;;4990553;28;20612;-70